Terminal Aerodrome Forecast
Issued by NWS Blacksburg, VA

Current Version | Previous Version | Text Only | Print | Product List | Glossary Off
Versions: 1 2 3 4 5 6 7 8 9 10 11 12 13 14 15 16 17 18 19 20 21 22 23 24 25 26 27 28 29 30 31 32 33 34 35 36 37 38 39

106
FTUS41 KRNK 210520
TAFBLF
TAF
KBLF 210520Z 2106/2206 15004KT P6SM BKN250
     FM211600 16007KT P6SM SCT035 BKN200
     FM212000 20007KT P6SM BKN040=

USA.gov is the U.S. government's official web portal to all federal, state and local government web resources and services.